Accueil
METAR-TAF:

METAR-TAF

Aéroports :

Brescia Ghedi, Italie

latitude: 45-25N, longitude: 010-17E, altitude: 102 m

Observation

Le bulletin a été fait il y a 1 heure et 8 minutes, à 06:55 UTC
Vent 14 kt de est/nord-est
Température 13°C
Humidité 88%
Pression 1003 hPa
Visibilité: 3000 m
Nuages épars à une hauteur de 2600 ft
Nuages épars à une hauteur de 3700 ft
pluie faible, brume

METAR: LIPL 230655Z 07014KT 3000 -RA BR SCT026 SCT037 13/11 Q1003 RMK OVC VIS MIN 3000 WIND THR31 06015KT WIND THR13 07014KT YLO

Heure: 10:03 (08:03 UTC)

Prévision

Le bulletin a été fait il y a 3 heures et 3 minutes, à 05:00 UTC
Prévision valable du 23 à 06 UTC au 23 à 15 UTC
Vent 12 kt de est
Visibilité: 4000 m
Nuages épars à une hauteur de 2500 ft
Nuages fragmentés à une hauteur de 3500 ft
pluie, brume

TAF: LIPL 230500Z 2306/2315 08012KT 4000 RA BR SCT025 BKN035

Observations et prévisions météorologiques de plus de 4000 aéroports (messages METAR et TAF).

Les stations disponibles sont représentées par des disques jaunes et rouges sur la carte.

Passer la souris dessus pour voir le nom de la station.

Cliquer dessus pour voir les observations et prévisions météorologiques.

Pour changer de carte: cliquez sur les boutons verts avec une croix noire pour zoomer, sur le bouton vert avec un tiret pour effectuer un zoom arrière, ou sur les flèches vertes pour les cartes adjacentes.


METAR-TAF: